Time;durP1;ratioP1;P1;durP2;ratioP2;P2;SDS_P1;SDS_P2;PMS_P1;PMS_P2;Temp;Humidity;BMP_temperature;BMP_pressure;BME280_temperature;BME280_humidity;BME280_pressure;Samples;Min_cycle;Max_cycle;Signal;HPM_P1;HPM_P2
2022/02/08 00:02:32;;;;;;;2.00;0.90;;;-1.20;99.90;;;;;;6336677;28;20308;-72
2022/02/08 00:05:37;;;;;;;0.97;0.97;;;-1.20;99.90;;;;;;6336294;28;20582;-72
2022/02/08 00:08:44;;;;;;;1.00;1.00;;;-1.20;99.90;;;;;;6337062;28;20458;-72
2022/02/08 00:11:49;;;;;;;1.13;1.10;;;-1.20;99.90;;;;;;6336770;28;20371;-73
2022/02/08 00:14:55;;;;;;;1.20;1.20;;;-1.20;99.90;;;;;;6336761;28;20293;-73
2022/02/08 00:18:00;;;;;;;0.90;0.90;;;-1.30;99.90;;;;;;6337188;28;20300;-73
2022/02/08 00:21:06;;;;;;;0.77;0.77;;;-1.20;99.90;;;;;;6337372;28;20269;-73
2022/02/08 00:24:16;;;;;;;0.90;0.90;;;-1.20;99.90;;;;;;6336390;28;20308;-72
2022/02/08 00:27:21;;;;;;;0.97;0.97;;;-1.20;99.90;;;;;;6336657;28;20292;-73
2022/02/08 00:30:26;;;;;;;0.97;0.97;;;-1.20;99.90;;;;;;6336297;28;20479;-72
2022/02/08 00:33:32;;;;;;;0.80;0.80;;;-1.30;99.90;;;;;;6336769;28;20297;-72
2022/02/08 00:36:37;;;;;;;0.90;0.90;;;-1.30;99.90;;;;;;6335681;28;20273;-72
2022/02/08 00:39:44;;;;;;;0.80;0.80;;;-1.30;99.90;;;;;;6335312;28;20289;-73
2022/02/08 00:42:53;;;;;;;1.00;1.00;;;-1.20;99.90;;;;;;6335833;28;20293;-72
2022/02/08 00:46:02;;;;;;;1.03;1.03;;;-1.30;99.90;;;;;;6334880;28;20278;-72
2022/02/08 00:49:09;;;;;;;1.17;1.00;;;-1.20;99.90;;;;;;6335970;28;20292;-72
2022/02/08 00:52:16;;;;;;;1.10;1.10;;;-1.30;99.90;;;;;;6336182;28;20281;-72
2022/02/08 00:55:22;;;;;;;1.10;1.10;;;-1.30;99.90;;;;;;6336125;28;20297;-73
2022/02/08 00:58:28;;;;;;;0.93;0.93;;;-1.30;99.90;;;;;;6334591;28;20305;-73
2022/02/08 01:01:37;;;;;;;0.90;0.90;;;-1.40;99.90;;;;;;6334937;28;20454;-72
2022/02/08 01:04:48;;;;;;;1.50;1.00;;;-1.40;99.90;;;;;;6334697;28;20348;-72
2022/02/08 01:07:53;;;;;;;0.90;0.90;;;-1.30;99.90;;;;;;6335033;28;20312;-72
2022/02/08 01:11:00;;;;;;;1.00;1.00;;;-1.30;99.90;;;;;;6334793;28;20432;-72
2022/02/08 01:14:07;;;;;;;0.90;0.90;;;-1.30;99.90;;;;;;6334501;28;20297;-72
2022/02/08 01:17:13;;;;;;;2.17;1.00;;;-1.30;99.90;;;;;;6337055;28;20277;-72
2022/02/08 01:20:28;;;;;;;0.90;0.90;;;-1.40;99.90;;;;;;6335189;28;20288;-72
2022/02/08 01:23:35;;;;;;;1.00;1.00;;;-1.30;99.90;;;;;;6317765;28;20298;-73
2022/02/08 01:26:48;;;;;;;0.90;0.90;;;-1.30;99.90;;;;;;6334740;28;20276;-72
2022/02/08 01:29:55;;;;;;;1.13;0.97;;;-1.30;99.90;;;;;;6335756;28;20294;-73
2022/02/08 01:33:14;;;;;;;1.63;1.10;;;-1.30;99.90;;;;;;6335905;28;20292;-73
2022/02/08 01:36:36;;;;;;;1.13;1.13;;;-1.20;99.90;;;;;;6318159;28;20268;-73
2022/02/08 01:39:59;;;;;;;1.73;0.90;;;-1.10;99.90;;;;;;6333763;28;20294;-72
2022/02/08 01:46:34;;;;;;;1.00;1.00;;;-0.90;99.90;;;;;;6326012;28;20271;-72
2022/02/08 01:49:56;;;;;;;1.13;1.00;;;-0.90;99.90;;;;;;6339443;28;20293;-72
2022/02/08 01:53:02;;;;;;;0.93;0.93;;;-0.90;99.90;;;;;;6338836;28;20463;-73
2022/02/08 01:56:12;;;;;;;1.03;1.03;;;-1.00;99.90;;;;;;6340768;28;20273;-73
2022/02/08 01:59:21;;;;;;;1.10;1.10;;;-1.00;99.90;;;;;;6338762;28;20293;-72
2022/02/08 02:02:27;;;;;;;1.10;1.10;;;-1.00;99.90;;;;;;6355244;28;20300;-73
2022/02/08 02:05:33;;;;;;;0.90;0.90;;;-1.00;99.90;;;;;;6338641;28;20289;-72
2022/02/08 02:08:39;;;;;;;0.90;0.90;;;-0.90;99.90;;;;;;6339053;28;20297;-72
2022/02/08 02:11:45;;;;;;;0.90;0.90;;;-0.90;99.90;;;;;;6338941;28;20574;-73
2022/02/08 02:14:52;;;;;;;0.93;0.93;;;-0.80;99.90;;;;;;6338710;28;20301;-72
2022/02/08 02:17:57;;;;;;;1.10;1.10;;;-0.80;99.90;;;;;;6337458;28;20312;-72
2022/02/08 02:21:05;;;;;;;0.97;0.97;;;-0.70;99.90;;;;;;6337969;28;20273;-73
2022/02/08 02:24:18;;;;;;;1.23;0.83;;;-0.60;99.90;;;;;;6338199;28;20553;-72
2022/02/08 02:27:23;;;;;;;1.27;0.97;;;-0.50;99.90;;;;;;6339358;28;20272;-72
2022/02/08 02:30:30;;;;;;;0.90;0.90;;;-0.50;99.90;;;;;;6354092;28;20297;-72
2022/02/08 02:33:38;;;;;;;0.90;0.90;;;-0.40;99.90;;;;;;6354498;28;20298;-73
2022/02/08 02:36:45;;;;;;;0.90;0.90;;;-0.40;99.90;;;;;;6338215;28;20271;-72
2022/02/08 02:39:52;;;;;;;0.83;0.83;;;-0.40;99.90;;;;;;6337189;28;20294;-72
2022/02/08 02:42:57;;;;;;;0.90;0.90;;;-0.30;99.90;;;;;;6336946;28;20304;-72
2022/02/08 02:46:04;;;;;;;0.90;0.90;;;-0.30;99.90;;;;;;6354802;28;20588;-73
2022/02/08 02:49:10;;;;;;;1.10;0.90;;;-0.30;99.90;;;;;;6336977;28;20296;-72
2022/02/08 02:52:18;;;;;;;0.73;0.73;;;-0.20;99.90;;;;;;6337876;28;20274;-72
2022/02/08 02:55:33;;;;;;;2.10;0.90;;;-0.10;99.90;;;;;;6336779;28;20297;-72
2022/02/08 02:58:40;;;;;;;0.90;0.90;;;-0.10;99.90;;;;;;6353686;28;20297;-72
2022/02/08 03:02:13;;;;;;;0.83;0.83;;;0.00;99.90;;;;;;6354355;28;20274;-72
2022/02/08 03:05:28;;;;;;;1.20;0.80;;;0.00;99.90;;;;;;6353913;28;20322;-72
2022/02/08 03:18:45;;;;;;;1.10;0.80;;;0.40;99.90;;;;;;6337598;28;20300;-73
2022/02/08 03:21:51;;;;;;;0.90;0.70;;;0.40;99.90;;;;;;6353667;28;20569;-73
2022/02/08 03:24:57;;;;;;;0.70;0.70;;;0.50;99.90;;;;;;6337912;28;20302;-72
2022/02/08 03:28:06;;;;;;;0.70;0.70;;;0.60;99.90;;;;;;6336821;28;20295;-73
2022/02/08 03:31:13;;;;;;;1.47;0.90;;;0.70;99.50;;;;;;6337015;28;20275;-74
2022/02/08 03:34:18;;;;;;;0.80;0.80;;;0.90;98.70;;;;;;6352463;28;20302;-74
2022/02/08 03:37:28;;;;;;;0.70;0.70;;;0.90;98.80;;;;;;6336973;28;20287;-72
2022/02/08 03:40:40;;;;;;;1.00;0.90;;;0.90;99.10;;;;;;6336162;28;20314;-72
2022/02/08 03:43:50;;;;;;;0.73;0.73;;;0.90;99.00;;;;;;6369364;27;20295;-72
2022/02/08 03:47:04;;;;;;;1.33;0.77;;;0.90;99.10;;;;;;6336697;28;20563;-72
2022/02/08 03:50:11;;;;;;;0.80;0.60;;;1.00;98.90;;;;;;6336723;28;20481;-72
2022/02/08 03:53:17;;;;;;;2.00;0.80;;;1.10;99.00;;;;;;6318997;28;20298;-72
2022/02/08 03:56:23;;;;;;;0.80;0.80;;;1.10;98.50;;;;;;6319356;28;20274;-72
2022/02/08 03:59:34;;;;;;;0.80;0.80;;;1.10;98.70;;;;;;6335419;28;20299;-72
2022/02/08 04:02:46;;;;;;;0.90;0.90;;;1.10;98.80;;;;;;6330776;28;20300;-73
2022/02/08 04:05:53;;;;;;;1.17;0.80;;;1.20;98.30;;;;;;6337163;28;20302;-72
2022/02/08 04:09:00;;;;;;;1.43;0.80;;;1.30;98.60;;;;;;6336475;28;20484;-72
2022/02/08 04:12:12;;;;;;;0.90;0.90;;;1.30;99.40;;;;;;6335349;28;20265;-73
2022/02/08 04:15:32;;;;;;;0.90;0.87;;;1.30;99.90;;;;;;6336403;28;20474;-73
2022/02/08 04:39:03;;;;;;;0.80;0.80;;;1.20;99.90;;;;;;6325838;28;20291;-73
2022/02/08 04:42:17;;;;;;;0.93;0.90;;;1.30;99.90;;;;;;6335952;28;20573;-73
2022/02/08 04:45:28;;;;;;;1.23;1.00;;;1.30;99.90;;;;;;6337024;28;20292;-73
2022/02/08 04:48:50;;;;;;;4.50;1.07;;;1.30;99.90;;;;;;6336361;28;20483;-73
2022/02/08 04:51:59;;;;;;;0.97;0.97;;;1.30;99.90;;;;;;6335922;28;20273;-73
2022/02/08 04:55:26;;;;;;;1.07;1.07;;;1.30;99.90;;;;;;6336910;28;20273;-73
2022/02/08 04:58:37;;;;;;;1.50;1.20;;;1.30;99.90;;;;;;6336588;28;20309;-73
2022/02/08 05:02:08;;;;;;;1.00;0.90;;;1.30;99.90;;;;;;6319493;28;20273;-73
2022/02/08 05:29:45;;;;;;;1.37;1.33;;;1.50;99.90;;;;;;6340461;28;20292;-72
2022/02/08 05:35:59;;;;;;;3.17;1.37;;;1.50;99.90;;;;;;6341275;28;20281;-73
2022/02/08 05:42:44;;;;;;;3.20;1.50;;;1.60;99.90;;;;;;6339976;28;20527;-73
2022/02/08 05:46:15;;;;;;;3.50;1.77;;;1.60;99.90;;;;;;6340939;28;20292;-72
2022/02/08 05:49:30;;;;;;;2.70;1.30;;;1.60;99.90;;;;;;6340371;28;20306;-73
2022/02/08 05:52:48;;;;;;;2.23;1.50;;;1.60;99.90;;;;;;6340115;28;20441;-72
2022/02/08 05:55:56;;;;;;;1.30;1.30;;;1.60;99.90;;;;;;6339872;28;20273;-72
2022/02/08 05:59:01;;;;;;;4.33;1.57;;;1.50;99.90;;;;;;6339862;28;20297;-72
2022/02/08 06:02:06;;;;;;;4.83;1.30;;;1.50;99.90;;;;;;6339827;28;20272;-72
2022/02/08 06:05:37;;;;;;;7.50;1.70;;;1.50;99.90;;;;;;6338350;28;20682;-72
2022/02/08 06:08:42;;;;;;;4.53;1.40;;;1.50;99.90;;;;;;6339998;28;20295;-72
2022/02/08 06:11:49;;;;;;;4.70;1.70;;;1.50;99.90;;;;;;6340110;28;20277;-73
2022/02/08 06:14:59;;;;;;;3.37;1.40;;;1.50;99.90;;;;;;6338361;28;20296;-73
2022/02/08 06:18:16;;;;;;;7.67;1.63;;;1.50;99.90;;;;;;6353791;28;20296;-72
2022/02/08 06:21:22;;;;;;;7.10;2.00;;;1.50;99.90;;;;;;6339347;28;20278;-73
2022/02/08 06:24:27;;;;;;;6.77;1.73;;;1.50;99.90;;;;;;6339819;28;20293;-73
2022/02/08 06:27:33;;;;;;;5.77;1.87;;;1.50;99.90;;;;;;6339367;28;20468;-73
2022/02/08 06:30:38;;;;;;;3.23;1.63;;;1.50;99.90;;;;;;6339137;28;20273;-72
2022/02/08 06:33:44;;;;;;;4.00;1.80;;;1.50;99.90;;;;;;6339471;28;20319;-72
2022/02/08 06:36:56;;;;;;;6.53;1.63;;;1.50;99.90;;;;;;6339971;28;20266;-73
2022/02/08 06:40:01;;;;;;;1.93;1.70;;;1.50;99.90;;;;;;6337835;28;20553;-73
2022/02/08 06:43:08;;;;;;;6.53;1.70;;;1.60;99.90;;;;;;6338684;28;20296;-73
2022/02/08 06:46:13;;;;;;;4.67;1.63;;;1.50;99.90;;;;;;6338931;28;20297;-73
2022/02/08 06:49:19;;;;;;;3.50;1.80;;;1.60;99.90;;;;;;6338910;28;20292;-73
2022/02/08 06:52:24;;;;;;;3.43;1.37;;;1.60;99.90;;;;;;6338201;28;20305;-73
2022/02/08 06:55:30;;;;;;;2.97;1.77;;;1.60;99.90;;;;;;6354322;28;20276;-72
2022/02/08 06:58:48;;;;;;;4.33;1.50;;;1.50;99.90;;;;;;6337396;28;20297;-73
2022/02/08 07:01:53;;;;;;;3.30;1.60;;;1.50;99.90;;;;;;6338348;28;20270;-73
2022/02/08 07:04:59;;;;;;;4.67;1.90;;;1.60;99.90;;;;;;6337597;28;20692;-73
2022/02/08 07:08:05;;;;;;;5.77;1.87;;;1.60;99.90;;;;;;6336401;28;20309;-73
2022/02/08 07:11:15;;;;;;;6.37;2.10;;;1.60;99.90;;;;;;6338315;28;20277;-73
2022/02/08 07:14:27;;;;;;;3.67;1.87;;;1.60;99.90;;;;;;6337646;28;20377;-74
2022/02/08 07:17:33;;;;;;;8.07;2.10;;;1.60;99.90;;;;;;6337852;28;20573;-72
2022/02/08 07:20:38;;;;;;;2.30;1.60;;;1.70;99.90;;;;;;6338627;28;20272;-73
2022/02/08 07:23:44;;;;;;;2.37;1.40;;;1.60;99.90;;;;;;6337798;28;20297;-72
2022/02/08 07:26:51;;;;;;;7.60;1.97;;;1.70;99.90;;;;;;6338040;28;20312;-72
2022/02/08 07:30:08;;;;;;;1.73;1.40;;;1.70;99.90;;;;;;6336224;28;20553;-73
2022/02/08 07:33:15;;;;;;;3.23;1.40;;;1.70;99.90;;;;;;6337255;28;20293;-73
2022/02/08 07:36:28;;;;;;;3.80;1.40;;;1.60;99.90;;;;;;6338071;28;20273;-73
2022/02/08 07:39:41;;;;;;;1.50;1.40;;;1.60;99.90;;;;;;6337440;28;20292;-72
2022/02/08 07:42:46;;;;;;;3.10;1.30;;;1.60;99.90;;;;;;6337528;28;20324;-73
2022/02/08 07:45:53;;;;;;;1.53;1.50;;;1.70;99.90;;;;;;6335581;28;20271;-73
2022/02/08 07:48:59;;;;;;;3.77;1.63;;;1.70;99.90;;;;;;6337581;28;20321;-73
2022/02/08 07:52:05;;;;;;;3.53;1.70;;;1.70;99.90;;;;;;6337634;28;20272;-72
2022/02/08 07:55:10;;;;;;;2.40;1.60;;;1.70;99.90;;;;;;6337212;28;20273;-73
2022/02/08 07:58:16;;;;;;;1.60;1.50;;;1.80;99.90;;;;;;6337476;28;20300;-73
2022/02/08 08:01:23;;;;;;;6.70;1.50;;;1.80;99.90;;;;;;6337601;28;20308;-74
2022/02/08 08:04:28;;;;;;;4.97;2.03;;;1.90;99.90;;;;;;6336230;28;20312;-73
2022/02/08 08:07:33;;;;;;;2.47;1.40;;;1.90;99.90;;;;;;6336725;28;20296;-73
2022/02/08 08:10:44;;;;;;;8.97;1.80;;;1.80;99.90;;;;;;6337444;28;20264;-73
2022/02/08 08:13:59;;;;;;;4.50;1.43;;;1.90;99.90;;;;;;6337042;28;20292;-73
2022/02/08 08:17:35;;;;;;;3.57;1.90;;;1.90;99.90;;;;;;6336277;28;20278;-74
2022/02/08 08:20:37;;;;;;;5.13;1.60;;;1.90;99.90;;;;;;6335766;28;20273;-73
2022/02/08 08:23:42;;;;;;;7.23;1.67;;;1.90;99.90;;;;;;6335987;28;20301;-72
2022/02/08 08:26:48;;;;;;;2.20;2.03;;;2.00;99.90;;;;;;6336163;28;20278;-72
2022/02/08 08:29:53;;;;;;;4.63;2.07;;;2.00;99.90;;;;;;6335801;28;20305;-72
2022/02/08 08:33:00;;;;;;;3.33;1.90;;;2.10;99.90;;;;;;6336746;28;20293;-72
2022/02/08 08:36:06;;;;;;;1.73;1.60;;;2.00;99.90;;;;;;6337560;28;20424;-72
2022/02/08 08:39:13;;;;;;;2.83;1.80;;;2.10;99.90;;;;;;6336152;28;20300;-72
2022/02/08 08:42:32;;;;;;;2.77;2.20;;;2.00;99.90;;;;;;6335964;28;20290;-73
2022/02/08 08:49:25;;;;;;;1.87;1.77;;;2.20;99.90;;;;;;6335662;28;20464;-73
2022/02/08 08:52:35;;;;;;;4.07;1.80;;;2.20;99.90;;;;;;6336829;28;20298;-73
2022/02/08 08:55:40;;;;;;;2.40;1.87;;;2.20;99.90;;;;;;6336129;28;20552;-73
2022/02/08 08:58:45;;;;;;;3.67;2.20;;;2.30;99.90;;;;;;6339682;28;20576;-73
2022/02/08 09:01:51;;;;;;;6.83;1.70;;;2.30;99.90;;;;;;6340990;28;20542;-75
2022/02/08 09:04:58;;;;;;;3.43;2.03;;;2.30;99.90;;;;;;6340480;28;20293;-74
2022/02/08 09:08:04;;;;;;;5.20;2.00;;;2.40;99.90;;;;;;6341344;28;20577;-74
2022/02/08 09:11:27;;;;;;;3.33;1.83;;;2.40;99.90;;;;;;6337935;28;20274;-73
2022/02/08 09:14:44;;;;;;;3.43;1.80;;;2.40;99.90;;;;;;6340903;28;20298;-73
2022/02/08 09:18:15;;;;;;;3.53;1.70;;;2.40;99.90;;;;;;6340618;28;20313;-73
2022/02/08 09:21:42;;;;;;;3.63;2.03;;;2.40;99.90;;;;;;6341084;28;20278;-73
2022/02/08 09:28:21;;;;;;;3.33;1.90;;;2.50;99.90;;;;;;6340065;28;20301;-73
2022/02/08 09:31:26;;;;;;;6.43;1.70;;;2.50;99.90;;;;;;6340121;28;20463;-74
2022/02/08 09:34:33;;;;;;;4.13;2.03;;;2.60;99.90;;;;;;6340698;28;20293;-73
2022/02/08 09:37:40;;;;;;;5.13;1.70;;;2.60;99.90;;;;;;6340146;28;20429;-74
2022/02/08 09:40:46;;;;;;;2.00;1.90;;;2.60;99.90;;;;;;6340933;28;20274;-74
2022/02/08 09:43:53;;;;;;;3.03;2.07;;;2.60;99.90;;;;;;6340003;28;20460;-74
2022/02/08 09:46:58;;;;;;;1.97;1.87;;;2.60;99.90;;;;;;6340639;28;20269;-74
2022/02/08 09:50:09;;;;;;;4.23;1.87;;;2.60;99.90;;;;;;6339819;28;20289;-73
2022/02/08 09:53:22;;;;;;;5.90;2.23;;;2.70;99.90;;;;;;6339793;28;20300;-73
2022/02/08 09:56:28;;;;;;;3.10;1.50;;;2.80;99.90;;;;;;6340612;28;20273;-74
2022/02/08 09:59:35;;;;;;;2.40;1.60;;;2.80;99.90;;;;;;6339422;28;20295;-74
2022/02/08 10:02:40;;;;;;;1.80;1.70;;;2.80;99.90;;;;;;6339403;28;20290;-73
2022/02/08 10:05:51;;;;;;;4.50;1.80;;;2.90;99.90;;;;;;6331904;28;20273;-74
2022/02/08 10:09:03;;;;;;;5.43;1.77;;;2.90;99.90;;;;;;6338972;28;20482;-73
2022/02/08 10:12:10;;;;;;;4.63;1.77;;;2.90;99.90;;;;;;6335636;28;20270;-74
2022/02/08 10:22:08;;;;;;;7.73;1.90;;;3.10;99.90;;;;;;6339256;28;20266;-74
2022/02/08 10:25:25;;;;;;;2.33;1.67;;;3.20;99.90;;;;;;6339431;28;20420;-73
2022/02/08 10:28:52;;;;;;;2.07;1.97;;;3.20;99.90;;;;;;6339303;28;20295;-73
2022/02/08 10:32:17;;;;;;;3.33;1.73;;;3.30;99.90;;;;;;6338880;28;20265;-74
2022/02/08 10:38:54;;;;;;;1.47;1.47;;;3.40;99.90;;;;;;6339127;28;20294;-73
2022/02/08 10:42:00;;;;;;;2.83;1.67;;;3.40;99.90;;;;;;6339316;28;20271;-74
2022/02/08 10:45:19;;;;;;;3.40;1.70;;;3.50;99.90;;;;;;6339537;28;20273;-74
2022/02/08 10:48:32;;;;;;;2.20;1.87;;;3.50;99.90;;;;;;6339104;28;20589;-74
2022/02/08 10:51:45;;;;;;;1.60;1.60;;;3.50;99.90;;;;;;6340283;28;20294;-73
2022/02/08 10:54:51;;;;;;;2.07;1.70;;;3.50;99.90;;;;;;6331621;28;20296;-73
2022/02/08 10:58:08;;;;;;;5.23;2.10;;;3.60;99.90;;;;;;6320496;28;20294;-73
2022/02/08 11:01:18;;;;;;;2.37;2.27;;;3.60;99.90;;;;;;6334618;28;20272;-73
2022/02/08 11:04:44;;;;;;;4.00;2.20;;;3.70;99.90;;;;;;6336025;28;20303;-72
2022/02/08 11:08:12;;;;;;;6.93;2.00;;;3.70;99.90;;;;;;6337729;28;20302;-73
2022/02/08 11:11:26;;;;;;;3.73;1.90;;;3.70;99.90;;;;;;6321672;28;20311;-74
2022/02/08 11:14:44;;;;;;;2.27;2.00;;;3.70;99.90;;;;;;6312245;28;20292;-73
2022/02/08 11:18:16;;;;;;;4.53;2.33;;;3.80;99.90;;;;;;6305883;28;20293;-74
2022/02/08 11:21:26;;;;;;;2.20;1.90;;;3.90;99.90;;;;;;6313139;28;20274;-74
2022/02/08 11:24:40;;;;;;;2.27;2.13;;;4.00;99.90;;;;;;6312739;28;20294;-74
2022/02/08 11:27:52;;;;;;;5.30;2.37;;;4.00;99.90;;;;;;6304689;28;20294;-73
2022/02/08 11:31:12;;;;;;;4.53;2.10;;;4.10;99.90;;;;;;6312401;28;20288;-72
2022/02/08 11:45:08;;;;;;;4.13;2.20;;;4.10;99.90;;;;;;6311922;28;20572;-74
2022/02/08 11:51:53;;;;;;;3.57;1.83;;;4.20;99.90;;;;;;6310831;28;20295;-74
2022/02/08 11:58:55;;;;;;;2.53;1.97;;;4.30;99.90;;;;;;6210825;28;20311;-74
2022/02/08 12:02:40;;;;;;;4.83;1.67;;;4.40;99.90;;;;;;6214390;28;20276;-74
2022/02/08 12:06:02;;;;;;;5.17;1.87;;;4.40;99.90;;;;;;6311510;28;20290;-75
2022/02/08 12:09:12;;;;;;;2.10;1.70;;;4.30;99.90;;;;;;6311165;28;20237;-73
2022/02/08 12:33:24;;;;;;;2.40;1.57;;;4.00;99.90;;;;;;6232792;28;20298;-74
2022/02/08 12:36:46;;;;;;;4.07;1.60;;;4.00;99.90;;;;;;6310587;28;20272;-73
2022/02/08 12:50:50;;;;;;;2.40;1.50;;;4.10;99.90;;;;;;6309555;28;20281;-72
2022/02/08 12:57:34;;;;;;;1.30;1.30;;;3.90;99.90;;;;;;6286929;28;20290;-75
2022/02/08 13:00:50;;;;;;;3.47;1.63;;;3.90;99.90;;;;;;6311877;28;20278;-73
2022/02/08 13:04:17;;;;;;;2.90;1.13;;;3.90;99.90;;;;;;6324045;28;20308;-73
2022/02/08 13:14:56;;;;;;;3.03;1.20;;;4.00;99.90;;;;;;6310844;28;20301;-73
2022/02/08 14:02:45;;;;;;;2.77;1.20;;;4.20;99.90;;;;;;6313870;28;20298;-74
2022/02/08 14:05:58;;;;;;;1.23;1.10;;;4.20;99.90;;;;;;6339473;28;20270;-73
2022/02/08 14:09:20;;;;;;;3.00;1.30;;;4.20;99.90;;;;;;6339539;28;20396;-75
2022/02/08 14:16:03;;;;;;;2.07;1.10;;;4.10;99.90;;;;;;6337933;28;20276;-73
2022/02/08 14:19:29;;;;;;;3.00;1.23;;;4.20;99.90;;;;;;6339013;28;20299;-74
2022/02/08 14:22:51;;;;;;;2.00;1.20;;;4.30;99.90;;;;;;6339071;28;20294;-73
2022/02/08 14:29:10;;;;;;;1.00;1.00;;;4.20;99.90;;;;;;6338921;28;20272;-73
2022/02/08 14:29:45;;;;;;;5.90;1.20;;;4.20;99.90;;;;;;6321586;28;20467;-73
2022/02/08 14:33:00;;;;;;;1.63;1.30;;;4.10;99.90;;;;;;6339172;28;20300;-74
2022/02/08 14:36:23;;;;;;;2.23;1.23;;;4.10;99.90;;;;;;6339972;28;20288;-73
2022/02/08 15:00:37;;;;;;;2.23;1.30;;;3.70;99.90;;;;;;6240801;28;20279;-74
2022/02/08 15:07:38;;;;;;;1.07;1.07;;;3.50;99.90;;;;;;6338272;28;20271;-75
2022/02/08 15:10:43;;;;;;;4.40;1.30;;;3.50;99.90;;;;;;6337954;28;20563;-74
2022/02/08 15:13:55;;;;;;;2.27;1.10;;;3.40;99.90;;;;;;6338043;28;20306;-74
2022/02/08 15:17:00;;;;;;;2.70;1.27;;;3.40;99.90;;;;;;6338263;28;20272;-73
2022/02/08 15:20:08;;;;;;;2.90;1.23;;;3.30;99.90;;;;;;6338776;28;20277;-73
2022/02/08 15:23:18;;;;;;;3.00;1.10;;;3.30;99.90;;;;;;6338012;28;20319;-73
2022/02/08 15:26:24;;;;;;;1.47;1.30;;;3.20;99.90;;;;;;6338163;28;20287;-73
2022/02/08 15:29:32;;;;;;;1.77;1.37;;;3.20;99.90;;;;;;6337295;28;20300;-73
2022/02/08 15:32:38;;;;;;;1.83;1.13;;;3.10;99.90;;;;;;6337698;28;20300;-72
2022/02/08 15:35:43;;;;;;;4.13;1.33;;;3.10;99.90;;;;;;6337311;28;20271;-72
2022/02/08 15:38:53;;;;;;;4.87;1.33;;;3.10;99.90;;;;;;6336888;28;20304;-72
2022/02/08 15:41:58;;;;;;;2.77;1.00;;;3.10;99.90;;;;;;6336974;28;20272;-73
2022/02/08 15:45:13;;;;;;;3.87;1.30;;;3.00;99.90;;;;;;6337900;28;20280;-72
2022/02/08 15:48:22;;;;;;;1.40;1.10;;;3.00;99.90;;;;;;6337085;28;20605;-73
2022/02/08 15:51:39;;;;;;;1.90;1.20;;;3.00;99.90;;;;;;6338100;28;20271;-72
2022/02/08 15:54:50;;;;;;;1.30;1.17;;;2.90;99.90;;;;;;6336868;28;20300;-73
2022/02/08 15:58:07;;;;;;;1.20;1.20;;;2.90;99.90;;;;;;6336362;28;20468;-73
2022/02/08 16:01:26;;;;;;;1.80;1.20;;;2.70;99.90;;;;;;6337510;28;20277;-74
2022/02/08 16:07:58;;;;;;;3.03;1.10;;;2.60;99.90;;;;;;6336253;28;20293;-74
2022/02/08 16:11:11;;;;;;;1.97;1.20;;;2.60;99.90;;;;;;6336837;28;20266;-74
2022/02/08 16:14:29;;;;;;;1.47;1.37;;;2.60;99.90;;;;;;6336220;28;20304;-74
2022/02/08 16:17:45;;;;;;;1.63;1.37;;;2.60;99.90;;;;;;6336644;28;20296;-74
2022/02/08 16:21:27;;;;;;;2.10;1.50;;;2.50;99.90;;;;;;6337515;28;20273;-74
2022/02/08 16:24:45;;;;;;;2.03;1.40;;;2.50;99.90;;;;;;6336579;28;20303;-73
2022/02/08 16:28:03;;;;;;;1.67;1.57;;;2.50;99.90;;;;;;6318574;28;20305;-74
2022/02/08 16:55:16;;;;;;;1.43;1.30;;;2.40;99.90;;;;;;6318311;28;20578;-73
2022/02/08 16:58:37;;;;;;;1.07;1.07;;;2.30;99.90;;;;;;6335898;28;20426;-73
2022/02/08 17:01:42;;;;;;;1.30;0.97;;;2.30;99.90;;;;;;6336556;28;20274;-75
2022/02/08 17:04:48;;;;;;;1.43;1.10;;;2.30;99.90;;;;;;6336692;28;20308;-74
2022/02/08 17:07:55;;;;;;;2.37;1.00;;;2.30;99.90;;;;;;6335644;28;20296;-74
2022/02/08 17:11:02;;;;;;;1.20;1.20;;;2.40;99.90;;;;;;6336394;28;20282;-74
2022/02/08 17:34:53;;;;;;;2.40;1.30;;;2.10;99.90;;;;;;6282708;28;20303;-73
2022/02/08 17:45:32;;;;;;;2.03;1.20;;;2.10;99.90;;;;;;6281433;28;20280;-73
2022/02/08 17:48:38;;;;;;;3.03;1.20;;;2.10;99.90;;;;;;6282792;28;20299;-73
2022/02/08 17:51:43;;;;;;;2.90;1.33;;;2.10;99.90;;;;;;6282647;28;20278;-74
2022/02/08 17:54:51;;;;;;;1.77;1.27;;;2.10;99.90;;;;;;6282130;28;20305;-74
2022/02/08 17:57:58;;;;;;;2.20;1.40;;;2.10;99.90;;;;;;6282305;28;20584;-74
2022/02/08 18:01:03;;;;;;;2.43;1.40;;;2.20;99.90;;;;;;6283116;28;20288;-75
2022/02/08 18:04:12;;;;;;;3.13;1.50;;;2.20;99.90;;;;;;6281842;28;20296;-75
2022/02/08 18:07:21;;;;;;;5.07;1.80;;;2.10;99.90;;;;;;6282693;28;20291;-74
2022/02/08 18:10:29;;;;;;;8.67;1.93;;;2.10;99.90;;;;;;6282977;28;20566;-74
2022/02/08 18:13:39;;;;;;;1.47;1.30;;;2.10;99.90;;;;;;6268191;28;20301;-74
2022/02/08 18:16:51;;;;;;;1.60;1.50;;;2.10;99.90;;;;;;6256980;28;20274;-74
2022/02/08 18:20:04;;;;;;;1.90;1.20;;;2.20;99.90;;;;;;6256773;28;20301;-74
2022/02/08 18:23:23;;;;;;;4.00;1.50;;;2.20;99.90;;;;;;6257222;28;20296;-74
2022/02/08 19:04:34;;;;;;;6.77;2.50;;;2.00;99.90;;;;;;6239595;28;20292;-76
2022/02/08 19:07:34;;;;;;;8.00;2.30;;;1.90;99.90;;;;;;6238870;28;20493;-74
2022/02/08 19:21:34;;;;;;;4.27;1.83;;;1.80;99.90;;;;;;6249453;28;20567;-74
2022/02/08 19:24:40;;;;;;;2.43;1.23;;;1.80;99.90;;;;;;6281212;28;20302;-74
2022/02/08 19:27:45;;;;;;;1.37;1.27;;;1.80;99.90;;;;;;6275986;28;20456;-74
2022/02/08 19:30:52;;;;;;;1.60;1.50;;;1.80;99.90;;;;;;6258530;28;20599;-74
2022/02/08 19:34:01;;;;;;;1.50;1.50;;;1.80;99.90;;;;;;6257771;28;20304;-75
2022/02/08 19:37:08;;;;;;;3.87;1.67;;;1.80;99.90;;;;;;6257742;28;20314;-75
2022/02/08 19:40:16;;;;;;;2.77;1.30;;;1.80;99.90;;;;;;6258558;28;20443;-75
2022/02/08 19:43:21;;;;;;;1.73;1.30;;;1.80;99.90;;;;;;6272878;28;20303;-74
2022/02/08 19:46:27;;;;;;;1.50;1.40;;;1.80;99.90;;;;;;6258554;28;20567;-75
2022/02/08 19:49:34;;;;;;;2.13;1.90;;;1.80;99.90;;;;;;6257572;28;20301;-74
2022/02/08 19:52:40;;;;;;;1.60;1.57;;;1.80;99.90;;;;;;6256971;28;20298;-74
2022/02/08 19:55:57;;;;;;;1.40;1.30;;;1.80;99.90;;;;;;6258148;28;20474;-73
2022/02/08 19:59:02;;;;;;;2.47;1.30;;;1.80;99.90;;;;;;6257545;28;20296;-74
2022/02/08 20:02:13;;;;;;;1.20;1.20;;;1.80;99.90;;;;;;6257091;28;20563;-74
2022/02/08 20:05:20;;;;;;;3.60;1.47;;;1.80;99.90;;;;;;6257597;28;20552;-73
2022/02/08 20:08:26;;;;;;;1.50;1.40;;;1.80;99.90;;;;;;6257380;28;20471;-73
2022/02/08 20:11:31;;;;;;;1.73;1.60;;;1.90;99.90;;;;;;6257317;28;20273;-73
2022/02/08 20:14:37;;;;;;;2.33;1.30;;;1.90;99.90;;;;;;6278931;28;20456;-75
2022/02/08 20:17:42;;;;;;;1.60;1.50;;;1.90;99.90;;;;;;6275195;28;20298;-74
2022/02/08 20:20:50;;;;;;;1.77;1.40;;;1.80;99.90;;;;;;6257453;28;20276;-74
2022/02/08 20:23:58;;;;;;;1.10;1.10;;;1.90;99.90;;;;;;6273018;28;20295;-74
2022/02/08 20:30:31;;;;;;;1.30;1.30;;;1.80;99.90;;;;;;6224314;28;20275;-73
2022/02/08 20:33:40;;;;;;;2.90;1.60;;;1.80;99.90;;;;;;6255211;28;20304;-73
2022/02/08 20:36:49;;;;;;;2.00;1.90;;;1.80;99.90;;;;;;6264862;28;20299;-73
2022/02/08 20:39:55;;;;;;;3.70;1.97;;;1.70;99.90;;;;;;6240439;28;20601;-73
2022/02/08 20:43:04;;;;;;;1.53;1.53;;;1.70;99.90;;;;;;6248868;28;20296;-73
2022/02/08 20:46:13;;;;;;;2.97;1.30;;;1.70;99.90;;;;;;6264521;28;20281;-73
2022/02/08 20:49:18;;;;;;;4.20;1.43;;;1.60;99.90;;;;;;6245046;28;20292;-72
2022/02/08 20:52:25;;;;;;;2.93;1.57;;;1.60;99.90;;;;;;6243182;28;20298;-73
2022/02/08 20:55:40;;;;;;;1.43;1.33;;;1.60;99.90;;;;;;6264717;28;20579;-73
2022/02/08 20:59:03;;;;;;;1.53;1.43;;;1.50;99.90;;;;;;6264544;28;20564;-72
2022/02/08 21:02:09;;;;;;;1.70;1.60;;;1.40;99.90;;;;;;6264004;28;20277;-73
2022/02/08 21:05:32;;;;;;;2.00;1.30;;;1.40;99.90;;;;;;6264553;28;20274;-72
2022/02/08 21:08:40;;;;;;;2.43;1.60;;;1.40;99.90;;;;;;6263994;28;20300;-72
2022/02/08 21:11:50;;;;;;;1.60;1.50;;;1.40;99.90;;;;;;6263923;28;20272;-72
2022/02/08 21:14:56;;;;;;;1.97;1.50;;;1.40;99.90;;;;;;6264292;28;20458;-73
2022/02/08 21:18:02;;;;;;;2.77;1.67;;;1.30;99.90;;;;;;6255217;28;20304;-73
2022/02/08 21:21:08;;;;;;;5.13;1.67;;;1.30;99.90;;;;;;6239361;28;20279;-73
2022/02/08 21:24:19;;;;;;;1.67;1.30;;;1.30;99.90;;;;;;6258378;28;20294;-73
2022/02/08 21:27:27;;;;;;;1.40;1.10;;;1.30;99.90;;;;;;6263537;28;20344;-73
2022/02/08 21:30:53;;;;;;;1.43;1.30;;;1.30;99.90;;;;;;6262750;28;20272;-73
2022/02/08 21:44:54;;;;;;;2.23;1.30;;;1.30;99.90;;;;;;6262995;28;20306;-73
2022/02/08 21:47:52;;;;;;;2.77;1.20;;;1.30;99.90;;;;;;6256446;28;20296;-73
2022/02/08 21:51:20;;;;;;;1.60;1.43;;;1.30;99.90;;;;;;6239024;28;20275;-72
2022/02/08 21:54:31;;;;;;;1.40;1.30;;;1.30;99.90;;;;;;6258845;28;20597;-72
2022/02/08 21:57:48;;;;;;;3.67;1.40;;;1.30;99.90;;;;;;6262665;28;20444;-73
2022/02/08 22:00:55;;;;;;;1.50;1.40;;;1.30;99.90;;;;;;6263877;28;20546;-72
2022/02/08 22:04:01;;;;;;;1.33;1.30;;;1.30;99.90;;;;;;6262744;28;20295;-72
2022/02/08 22:07:13;;;;;;;3.73;1.20;;;1.30;99.90;;;;;;6261680;28;20440;-73
2022/02/08 22:21:01;;;;;;;1.30;1.30;;;1.30;99.90;;;;;;6252484;28;20567;-72
2022/02/08 22:24:16;;;;;;;1.10;1.10;;;1.30;99.90;;;;;;6255052;28;20479;-72
2022/02/08 22:27:33;;;;;;;2.40;1.27;;;1.40;99.90;;;;;;6261756;28;20298;-73
2022/02/08 22:30:49;;;;;;;6.77;1.57;;;1.40;99.90;;;;;;6262287;28;20283;-72